Time;durP1;ratioP1;P1;durP2;ratioP2;P2;SDS_P1;SDS_P2;PMS_P1;PMS_P2;Temp;Humidity;BMP_temperature;BMP_pressure;BME280_temperature;BME280_humidity;BME280_pressure;Samples;Min_cycle;Max_cycle;Signal;HPM_P1;HPM_P2
2021/11/25 00:01:19;;;;;;;24.35;14.77;;;;;;;;;;4982137;28;20038;-65
2021/11/25 00:04:04;;;;;;;26.67;15.65;;;;;;;;;;4982163;28;20030;-67
2021/11/25 00:06:49;;;;;;;25.02;14.70;;;;;;;;;;4981669;28;20019;-68
2021/11/25 00:09:34;;;;;;;23.27;14.95;;;;;;;;;;4986418;28;20095;-66
2021/11/25 00:12:19;;;;;;;24.88;14.73;;;;;;;;;;4984903;28;20053;-63
2021/11/25 00:15:05;;;;;;;23.42;15.07;;;;;;;;;;4968870;28;20037;-66
2021/11/25 00:17:51;;;;;;;24.50;14.90;;;;;;;;;;4984436;28;20034;-66
2021/11/25 00:20:36;;;;;;;24.80;14.82;;;;;;;;;;4984946;28;20103;-66
2021/11/25 00:23:21;;;;;;;26.92;14.73;;;;;;;;;;4973737;28;20127;-67
2021/11/25 00:26:07;;;;;;;26.00;16.05;;;;;;;;;;4984214;28;20113;-66
2021/11/25 00:28:53;;;;;;;26.23;15.18;;;;;;;;;;4985544;28;20026;-66
2021/11/25 00:31:38;;;;;;;25.33;15.38;;;;;;;;;;4984658;28;20030;-74
2021/11/25 00:34:23;;;;;;;23.20;13.95;;;;;;;;;;4972266;28;20030;-75
2021/11/25 00:37:08;;;;;;;24.55;14.90;;;;;;;;;;4984358;28;20099;-73
2021/11/25 00:39:54;;;;;;;28.77;16.45;;;;;;;;;;4983103;28;20485;-73
2021/11/25 00:42:39;;;;;;;24.02;14.52;;;;;;;;;;4985478;28;20037;-73
2021/11/25 00:45:24;;;;;;;24.23;14.82;;;;;;;;;;4985281;28;20067;-73
2021/11/25 00:48:10;;;;;;;23.83;14.02;;;;;;;;;;4984293;28;20449;-76
2021/11/25 00:50:55;;;;;;;27.42;15.38;;;;;;;;;;4985989;28;20030;-62
2021/11/25 00:53:40;;;;;;;23.65;13.88;;;;;;;;;;4981505;28;20112;-63
2021/11/25 00:56:26;;;;;;;23.20;16.00;;;;;;;;;;4985695;28;20052;-66
2021/11/25 00:59:11;;;;;;;23.77;14.65;;;;;;;;;;4970212;28;20084;-63
2021/11/25 01:01:56;;;;;;;27.15;16.63;;;;;;;;;;4985830;28;20492;-65
2021/11/25 01:04:41;;;;;;;23.45;14.38;;;;;;;;;;4979568;28;20039;-66
2021/11/25 01:07:27;;;;;;;23.75;14.32;;;;;;;;;;4980856;28;20034;-66
2021/11/25 01:10:13;;;;;;;27.23;14.68;;;;;;;;;;4985421;28;20023;-63
2021/11/25 01:12:58;;;;;;;23.13;16.38;;;;;;;;;;4984011;28;20026;-62
2021/11/25 01:15:44;;;;;;;23.92;15.02;;;;;;;;;;4978678;28;20066;-62
2021/11/25 01:18:29;;;;;;;28.20;16.42;;;;;;;;;;4970085;28;20019;-63
2021/11/25 01:21:15;;;;;;;25.05;15.82;;;;;;;;;;4982552;28;20034;-65
2021/11/25 01:24:00;;;;;;;26.25;15.63;;;;;;;;;;4982740;28;20477;-63
2021/11/25 01:26:45;;;;;;;24.30;15.35;;;;;;;;;;4985240;28;20038;-72
2021/11/25 01:29:31;;;;;;;25.55;15.20;;;;;;;;;;4984862;28;20490;-62
2021/11/25 01:32:16;;;;;;;28.80;16.30;;;;;;;;;;4985411;28;20084;-63
2021/11/25 01:35:01;;;;;;;28.20;17.33;;;;;;;;;;4981805;28;20037;-63
2021/11/25 01:37:50;;;;;;;23.90;15.75;;;;;;;;;;4985419;28;20320;-61
2021/11/25 01:40:37;;;;;;;25.35;16.20;;;;;;;;;;4983374;28;20465;-63
2021/11/25 01:43:24;;;;;;;25.65;16.00;;;;;;;;;;4985205;28;20041;-61
2021/11/25 01:46:11;;;;;;;22.90;14.88;;;;;;;;;;4983781;28;20030;-75
2021/11/25 01:48:57;;;;;;;24.67;15.10;;;;;;;;;;4967810;28;20065;-66
2021/11/25 01:51:42;;;;;;;27.27;15.25;;;;;;;;;;4992345;28;20030;-64
2021/11/25 01:54:27;;;;;;;26.83;16.88;;;;;;;;;;4979119;28;20039;-67
2021/11/25 01:57:12;;;;;;;27.63;16.20;;;;;;;;;;4984851;28;20401;-66
2021/11/25 01:59:58;;;;;;;27.08;16.30;;;;;;;;;;4982641;28;20068;-65
2021/11/25 02:02:43;;;;;;;24.25;14.18;;;;;;;;;;4985196;28;20030;-65
2021/11/25 02:05:29;;;;;;;23.73;15.68;;;;;;;;;;4964363;28;20025;-76
2021/11/25 02:08:14;;;;;;;25.60;15.98;;;;;;;;;;4982847;28;20052;-62
2021/11/25 02:10:59;;;;;;;24.80;14.90;;;;;;;;;;4981389;28;20519;-62
2021/11/25 02:13:44;;;;;;;29.73;17.42;;;;;;;;;;4980317;28;20027;-61
2021/11/25 02:16:30;;;;;;;25.70;15.50;;;;;;;;;;4984647;28;20042;-64
2021/11/25 02:19:15;;;;;;;26.85;17.30;;;;;;;;;;4979466;28;20076;-63
2021/11/25 02:22:01;;;;;;;24.85;14.48;;;;;;;;;;4982583;28;20026;-67
2021/11/25 02:24:49;;;;;;;26.95;16.15;;;;;;;;;;4984678;28;20034;-61
2021/11/25 02:27:34;;;;;;;30.55;17.40;;;;;;;;;;4986056;28;20026;-64
2021/11/25 02:30:20;;;;;;;25.50;16.08;;;;;;;;;;4987986;28;20031;-65
2021/11/25 02:33:05;;;;;;;25.70;16.42;;;;;;;;;;4983746;28;20211;-62
2021/11/25 02:35:50;;;;;;;28.67;16.33;;;;;;;;;;4986901;28;20065;-64
2021/11/25 02:38:36;;;;;;;26.95;17.02;;;;;;;;;;4987564;28;20125;-63
2021/11/25 02:41:21;;;;;;;28.55;17.42;;;;;;;;;;4985331;28;20026;-61
2021/11/25 02:44:06;;;;;;;26.65;16.48;;;;;;;;;;4987634;28;20022;-74
2021/11/25 02:46:52;;;;;;;23.92;15.98;;;;;;;;;;4985644;28;20546;-74
2021/11/25 02:49:41;;;;;;;28.70;16.83;;;;;;;;;;4987575;28;20053;-73
2021/11/25 02:52:26;;;;;;;28.90;16.73;;;;;;;;;;4986812;28;20027;-74
2021/11/25 02:55:12;;;;;;;30.45;18.67;;;;;;;;;;4987010;28;20396;-74
2021/11/25 02:57:58;;;;;;;29.75;18.27;;;;;;;;;;4985660;28;20030;-65
2021/11/25 03:00:45;;;;;;;27.85;18.05;;;;;;;;;;4984300;28;20475;-63
2021/11/25 03:03:30;;;;;;;29.52;17.15;;;;;;;;;;4986280;28;20543;-74
2021/11/25 03:06:15;;;;;;;26.40;17.00;;;;;;;;;;5024723;28;20027;-73
2021/11/25 03:09:03;;;;;;;26.40;16.60;;;;;;;;;;4986021;28;20102;-73
2021/11/25 03:11:53;;;;;;;27.20;16.33;;;;;;;;;;4986323;28;20030;-73
2021/11/25 03:14:38;;;;;;;27.20;16.92;;;;;;;;;;4986415;28;20026;-75
2021/11/25 03:17:23;;;;;;;25.92;16.27;;;;;;;;;;4985933;28;20034;-62
2021/11/25 03:20:11;;;;;;;29.83;18.17;;;;;;;;;;4989141;28;20117;-65
2021/11/25 03:22:56;;;;;;;29.65;18.05;;;;;;;;;;4982241;28;20186;-63
2021/11/25 03:25:42;;;;;;;24.48;16.13;;;;;;;;;;4976178;28;20044;-67
2021/11/25 03:28:28;;;;;;;27.23;16.98;;;;;;;;;;4975248;28;20030;-64
2021/11/25 03:31:15;;;;;;;26.55;16.77;;;;;;;;;;4987744;28;20049;-64
2021/11/25 03:34:01;;;;;;;25.73;16.60;;;;;;;;;;4985616;28;20034;-65
2021/11/25 03:36:46;;;;;;;25.40;15.75;;;;;;;;;;4985707;28;20123;-63
2021/11/25 03:39:32;;;;;;;27.73;17.38;;;;;;;;;;4986014;28;20046;-68
2021/11/25 03:42:17;;;;;;;26.00;16.55;;;;;;;;;;4987112;28;20030;-67
2021/11/25 03:45:03;;;;;;;26.67;17.08;;;;;;;;;;4985148;28;20475;-67
2021/11/25 03:47:49;;;;;;;28.52;17.13;;;;;;;;;;4987039;28;20030;-67
2021/11/25 03:50:34;;;;;;;26.00;16.60;;;;;;;;;;4971772;28;20077;-70
2021/11/25 03:53:20;;;;;;;29.88;17.25;;;;;;;;;;4986211;28;20015;-66
2021/11/25 03:56:05;;;;;;;24.95;16.40;;;;;;;;;;4985332;28;20117;-63
2021/11/25 03:58:51;;;;;;;30.38;18.38;;;;;;;;;;4986290;28;20023;-65
2021/11/25 04:01:36;;;;;;;27.10;16.88;;;;;;;;;;4974510;28;20129;-63
2021/11/25 04:04:21;;;;;;;27.27;17.50;;;;;;;;;;4984422;28;20030;-65
2021/11/25 04:07:06;;;;;;;26.98;17.33;;;;;;;;;;4986261;28;20045;-66
2021/11/25 04:09:52;;;;;;;29.70;18.73;;;;;;;;;;4984676;28;20513;-66
2021/11/25 04:12:37;;;;;;;27.02;16.63;;;;;;;;;;4960499;28;20026;-64
2021/11/25 04:15:22;;;;;;;26.95;17.42;;;;;;;;;;4983921;28;20038;-64
2021/11/25 04:18:07;;;;;;;27.20;16.35;;;;;;;;;;4982106;28;20490;-65
2021/11/25 04:20:53;;;;;;;29.90;18.52;;;;;;;;;;4964275;28;20043;-65
2021/11/25 04:23:38;;;;;;;30.30;17.48;;;;;;;;;;4986074;28;20069;-65
2021/11/25 04:26:23;;;;;;;28.73;17.73;;;;;;;;;;4978478;28;20015;-65
2021/11/25 04:29:09;;;;;;;28.95;17.70;;;;;;;;;;4984734;28;20106;-63
2021/11/25 04:38:05;;;;;;;30.10;19.35;;;;;;;;;;4982582;28;20481;-64
2021/11/25 04:40:54;;;;;;;26.88;17.40;;;;;;;;;;4981116;28;20136;-66
2021/11/25 04:43:39;;;;;;;27.33;16.98;;;;;;;;;;4982620;28;20528;-64
2021/11/25 04:46:24;;;;;;;27.40;17.63;;;;;;;;;;4984774;28;20056;-65
2021/11/25 04:49:09;;;;;;;25.70;16.30;;;;;;;;;;4985423;28;20019;-65
2021/11/25 04:51:55;;;;;;;25.77;17.00;;;;;;;;;;4992815;28;20057;-65
2021/11/25 04:54:40;;;;;;;29.70;18.40;;;;;;;;;;4985817;28;20031;-65
2021/11/25 04:57:25;;;;;;;28.80;18.10;;;;;;;;;;4983943;28;20064;-62
2021/11/25 05:00:11;;;;;;;29.13;18.42;;;;;;;;;;4972149;28;20027;-65
2021/11/25 05:02:56;;;;;;;28.58;16.95;;;;;;;;;;4971120;28;20488;-63
2021/11/25 05:05:42;;;;;;;28.27;17.00;;;;;;;;;;4979825;28;20087;-63
2021/11/25 05:08:27;;;;;;;30.05;19.23;;;;;;;;;;4983974;28;20030;-71
2021/11/25 05:11:13;;;;;;;32.08;17.85;;;;;;;;;;4984000;28;20029;-75
2021/11/25 05:13:59;;;;;;;32.42;19.52;;;;;;;;;;4983597;28;20552;-75
2021/11/25 05:16:45;;;;;;;27.98;18.00;;;;;;;;;;4985636;28;20103;-76
2021/11/25 05:19:31;;;;;;;32.22;18.60;;;;;;;;;;4983405;28;20030;-75
2021/11/25 05:22:17;;;;;;;29.13;18.58;;;;;;;;;;4975201;28;20030;-73
2021/11/25 05:25:03;;;;;;;29.17;18.65;;;;;;;;;;4991342;28;20030;-72
2021/11/25 05:27:49;;;;;;;30.85;19.58;;;;;;;;;;4982752;28;20026;-72
2021/11/25 05:30:34;;;;;;;28.83;19.02;;;;;;;;;;4973877;28;20037;-64
2021/11/25 05:33:20;;;;;;;27.35;17.55;;;;;;;;;;4971014;28;20031;-65
2021/11/25 05:36:05;;;;;;;28.23;18.25;;;;;;;;;;4976874;28;20041;-62
2021/11/25 05:38:50;;;;;;;26.95;17.25;;;;;;;;;;4981256;28;20398;-67
2021/11/25 05:41:37;;;;;;;30.88;19.80;;;;;;;;;;4981303;28;20179;-65
2021/11/25 05:44:22;;;;;;;29.55;18.70;;;;;;;;;;4982147;28;20398;-63
2021/11/25 05:47:08;;;;;;;33.42;21.23;;;;;;;;;;4984798;28;20057;-62
2021/11/25 05:49:53;;;;;;;32.22;19.77;;;;;;;;;;4981058;28;20049;-64
2021/11/25 05:52:38;;;;;;;32.15;19.88;;;;;;;;;;4986568;28;20030;-61
2021/11/25 05:55:26;;;;;;;31.30;19.35;;;;;;;;;;4981555;28;20078;-62
2021/11/25 05:58:11;;;;;;;28.40;17.85;;;;;;;;;;4982590;28;20061;-61
2021/11/25 06:00:57;;;;;;;32.35;20.35;;;;;;;;;;4987095;28;20026;-64
2021/11/25 06:03:42;;;;;;;34.08;20.95;;;;;;;;;;4987993;28;20050;-64
2021/11/25 06:06:27;;;;;;;31.25;20.98;;;;;;;;;;4983742;28;20484;-63
2021/11/25 06:09:12;;;;;;;29.30;18.20;;;;;;;;;;4987057;28;20034;-64
2021/11/25 06:11:58;;;;;;;32.80;19.20;;;;;;;;;;4988515;28;20038;-65
2021/11/25 06:14:43;;;;;;;33.60;19.55;;;;;;;;;;4985270;28;20170;-64
2021/11/25 06:17:28;;;;;;;29.10;18.83;;;;;;;;;;4987669;28;20075;-63
2021/11/25 06:20:14;;;;;;;30.77;19.00;;;;;;;;;;4986770;28;20491;-63
2021/11/25 06:23:00;;;;;;;28.52;17.67;;;;;;;;;;4962179;28;20038;-64
2021/11/25 06:25:45;;;;;;;28.45;17.25;;;;;;;;;;4981427;28;20046;-75
2021/11/25 06:28:31;;;;;;;30.25;18.77;;;;;;;;;;4985736;28;20128;-75
2021/11/25 06:31:16;;;;;;;28.40;18.77;;;;;;;;;;4979277;28;20058;-76
2021/11/25 06:34:01;;;;;;;29.95;18.52;;;;;;;;;;4987148;28;20030;-74
2021/11/25 06:36:47;;;;;;;33.38;21.05;;;;;;;;;;4973378;28;20086;-75
2021/11/25 06:39:32;;;;;;;30.08;17.48;;;;;;;;;;4986610;28;20109;-71
2021/11/25 06:42:17;;;;;;;29.35;20.05;;;;;;;;;;4986460;28;20497;-72
2021/11/25 06:45:03;;;;;;;31.60;19.92;;;;;;;;;;4983863;28;20038;-71
2021/11/25 06:47:48;;;;;;;33.38;19.67;;;;;;;;;;4979331;28;20560;-71
2021/11/25 06:50:34;;;;;;;32.28;20.25;;;;;;;;;;4971477;28;20134;-71
2021/11/25 06:53:19;;;;;;;33.50;20.40;;;;;;;;;;4982984;28;20443;-72
2021/11/25 06:56:04;;;;;;;33.13;20.65;;;;;;;;;;4981622;28;20050;-71
2021/11/25 06:58:51;;;;;;;32.15;20.42;;;;;;;;;;4988601;28;20030;-70
2021/11/25 07:01:36;;;;;;;35.15;21.77;;;;;;;;;;4970485;28;20031;-64
2021/11/25 07:04:21;;;;;;;51.90;32.47;;;;;;;;;;4990285;28;20029;-63
2021/11/25 07:07:07;;;;;;;31.52;21.55;;;;;;;;;;5026612;28;20501;-64
2021/11/25 07:09:52;;;;;;;34.13;21.77;;;;;;;;;;4987973;28;20456;-63
2021/11/25 07:12:39;;;;;;;30.73;19.13;;;;;;;;;;4982550;28;20027;-64
2021/11/25 07:15:25;;;;;;;28.52;17.50;;;;;;;;;;4995142;28;20045;-75
2021/11/25 07:18:10;;;;;;;28.98;17.92;;;;;;;;;;4982574;28;20032;-65
2021/11/25 07:20:56;;;;;;;29.25;17.90;;;;;;;;;;4977540;28;20053;-66
2021/11/25 07:23:41;;;;;;;28.23;17.80;;;;;;;;;;4980644;28;20026;-64
2021/11/25 07:26:26;;;;;;;28.80;17.27;;;;;;;;;;4983815;28;20081;-65
2021/11/25 07:29:12;;;;;;;26.90;16.52;;;;;;;;;;4984085;28;20030;-67
2021/11/25 07:31:57;;;;;;;29.63;18.08;;;;;;;;;;4967633;28;20023;-66
2021/11/25 07:34:42;;;;;;;29.70;17.58;;;;;;;;;;4987319;28;20496;-65
2021/11/25 07:37:27;;;;;;;27.95;18.05;;;;;;;;;;4984983;28;20049;-65
2021/11/25 07:40:13;;;;;;;28.52;17.95;;;;;;;;;;4969247;28;20426;-64
2021/11/25 07:42:58;;;;;;;27.88;17.10;;;;;;;;;;4984847;28;20027;-66
2021/11/25 07:45:44;;;;;;;27.30;17.25;;;;;;;;;;4982142;28;20042;-64
2021/11/25 07:48:29;;;;;;;31.05;18.95;;;;;;;;;;4984638;28;20075;-66
2021/11/25 07:51:15;;;;;;;29.52;18.42;;;;;;;;;;4967706;28;20087;-64
2021/11/25 07:54:02;;;;;;;33.20;20.40;;;;;;;;;;4972321;28;20060;-72
2021/11/25 07:56:47;;;;;;;30.90;18.75;;;;;;;;;;4982468;28;20047;-63
2021/11/25 07:59:32;;;;;;;59.95;37.50;;;;;;;;;;4984423;28;20038;-63
2021/11/25 08:02:19;;;;;;;34.97;20.08;;;;;;;;;;4996831;28;20118;-65
2021/11/25 08:05:05;;;;;;;31.90;18.63;;;;;;;;;;4985065;28;20038;-64
2021/11/25 08:07:52;;;;;;;31.80;20.00;;;;;;;;;;4986108;28;20030;-64
2021/11/25 08:10:38;;;;;;;31.15;20.00;;;;;;;;;;4985307;28;20034;-64
2021/11/25 08:13:24;;;;;;;34.50;21.30;;;;;;;;;;4982346;28;20027;-64
2021/11/25 08:16:14;;;;;;;34.85;19.67;;;;;;;;;;4983780;28;20065;-72
2021/11/25 08:18:59;;;;;;;34.38;20.75;;;;;;;;;;4974470;28;20050;-71
2021/11/25 08:21:44;;;;;;;33.13;18.98;;;;;;;;;;4981997;28;20034;-71
2021/11/25 08:24:30;;;;;;;34.00;19.92;;;;;;;;;;4983941;28;20485;-76
2021/11/25 08:27:15;;;;;;;33.63;20.55;;;;;;;;;;4971753;28;20025;-77
2021/11/25 08:30:00;;;;;;;33.45;20.27;;;;;;;;;;4970203;28;20121;-72
2021/11/25 08:32:46;;;;;;;32.78;19.33;;;;;;;;;;4984903;28;20038;-70
2021/11/25 08:35:31;;;;;;;33.75;19.15;;;;;;;;;;4970057;28;21317;-69
2021/11/25 08:38:16;;;;;;;36.67;20.50;;;;;;;;;;4983912;28;20043;-70
2021/11/25 08:41:01;;;;;;;33.63;19.98;;;;;;;;;;4970730;28;20121;-69
2021/11/25 08:43:47;;;;;;;30.88;18.90;;;;;;;;;;4980808;28;20018;-68
2021/11/25 08:46:32;;;;;;;62.05;39.85;;;;;;;;;;4963828;28;20511;-70
2021/11/25 08:49:17;;;;;;;37.00;21.48;;;;;;;;;;4981084;28;20469;-72
2021/11/25 08:52:03;;;;;;;35.35;20.90;;;;;;;;;;4982329;28;20367;-70
2021/11/25 08:54:48;;;;;;;31.85;19.42;;;;;;;;;;4981594;28;20069;-71
2021/11/25 08:57:34;;;;;;;31.42;19.83;;;;;;;;;;4983759;28;20042;-73
2021/11/25 09:00:22;;;;;;;35.53;20.08;;;;;;;;;;4983753;28;20150;-63
2021/11/25 09:03:08;;;;;;;33.10;19.88;;;;;;;;;;4983055;28;20091;-59
2021/11/25 09:05:53;;;;;;;37.50;20.70;;;;;;;;;;4983669;28;20018;-61
2021/11/25 09:08:38;;;;;;;34.65;19.88;;;;;;;;;;4984504;28;20046;-64
2021/11/25 09:11:23;;;;;;;33.20;20.38;;;;;;;;;;4983703;28;20092;-66
2021/11/25 09:14:09;;;;;;;33.65;20.52;;;;;;;;;;4984060;28;20497;-62
2021/11/25 09:16:54;;;;;;;35.72;19.48;;;;;;;;;;4972896;28;20050;-61
2021/11/25 09:19:39;;;;;;;37.30;21.73;;;;;;;;;;4981195;28;20034;-61
2021/11/25 09:22:25;;;;;;;31.67;18.27;;;;;;;;;;4977732;28;20042;-64
2021/11/25 09:25:10;;;;;;;32.33;18.98;;;;;;;;;;4981894;28;20026;-71
2021/11/25 09:27:55;;;;;;;33.53;20.55;;;;;;;;;;4986203;28;20742;-71
2021/11/25 09:30:41;;;;;;;31.90;18.35;;;;;;;;;;4985021;28;20403;-72
2021/11/25 09:33:26;;;;;;;35.75;19.60;;;;;;;;;;4984518;28;20093;-71
2021/11/25 09:36:12;;;;;;;36.75;19.75;;;;;;;;;;4986366;28;20485;-72
2021/11/25 09:38:58;;;;;;;35.50;19.73;;;;;;;;;;4948600;28;20043;-72
2021/11/25 09:41:43;;;;;;;29.48;19.30;;;;;;;;;;4948102;28;20035;-71
2021/11/25 09:44:28;;;;;;;34.70;21.05;;;;;;;;;;4947339;28;20019;-75
2021/11/25 09:47:15;;;;;;;42.95;25.85;;;;;;;;;;4943195;29;20035;-67
2021/11/25 09:50:01;;;;;;;41.65;25.45;;;;;;;;;;4949158;28;20035;-66
2021/11/25 09:52:47;;;;;;;33.20;20.35;;;;;;;;;;4941135;28;20294;-69
2021/11/25 09:55:33;;;;;;;34.00;20.80;;;;;;;;;;4949793;29;20044;-68
2021/11/25 09:58:21;;;;;;;37.17;21.48;;;;;;;;;;4945336;28;20418;-67
2021/11/25 10:01:10;;;;;;;35.25;21.60;;;;;;;;;;4946461;28;20051;-61
2021/11/25 10:03:56;;;;;;;33.92;19.83;;;;;;;;;;4948144;28;20043;-60
2021/11/25 10:06:49;;;;;;;30.75;18.70;;;;;;;;;;4963022;28;20268;-60
2021/11/25 10:09:34;;;;;;;33.28;19.77;;;;;;;;;;4953113;28;20477;-60
2021/11/25 10:12:33;;;;;;;30.33;19.00;;;;;;;;;;4942284;28;20031;-63
2021/11/25 10:15:22;;;;;;;33.88;20.38;;;;;;;;;;4961732;28;20551;-62
2021/11/25 10:18:15;;;;;;;33.42;19.60;;;;;;;;;;4933027;29;20042;-64
2021/11/25 10:21:02;;;;;;;32.67;20.35;;;;;;;;;;4951972;28;20114;-71
2021/11/25 10:23:48;;;;;;;34.10;19.55;;;;;;;;;;4948689;28;20033;-67
2021/11/25 10:26:34;;;;;;;30.55;19.77;;;;;;;;;;4948667;28;20041;-65
2021/11/25 10:29:21;;;;;;;37.83;20.70;;;;;;;;;;4938807;28;20047;-65
2021/11/25 10:32:06;;;;;;;34.47;21.50;;;;;;;;;;4948583;29;20482;-67
2021/11/25 10:35:11;;;;;;;30.67;20.52;;;;;;;;;;4957431;28;20058;-68
2021/11/25 10:40:51;;;;;;;31.70;17.70;;;;;;;;;;4998110;28;20378;-61
2021/11/25 10:43:36;;;;;;;29.65;17.98;;;;;;;;;;4985852;28;20031;-64
2021/11/25 10:46:35;;;;;;;29.13;17.75;;;;;;;;;;4984798;28;20023;-62
2021/11/25 10:49:35;;;;;;;31.92;18.95;;;;;;;;;;4985758;28;20037;-63
2021/11/25 10:52:21;;;;;;;45.45;28.35;;;;;;;;;;4981945;28;20216;-63
2021/11/25 10:55:08;;;;;;;41.25;26.20;;;;;;;;;;4982478;28;20034;-63
2021/11/25 10:57:58;;;;;;;29.35;18.13;;;;;;;;;;4987458;28;20026;-62
2021/11/25 11:00:44;;;;;;;31.42;20.15;;;;;;;;;;4977132;28;20030;-64
2021/11/25 11:03:29;;;;;;;31.25;19.08;;;;;;;;;;4987448;28;20602;-62
2021/11/25 11:06:28;;;;;;;32.85;20.13;;;;;;;;;;4982816;28;20034;-60
2021/11/25 11:09:29;;;;;;;31.90;20.33;;;;;;;;;;4980523;28;20033;-60
2021/11/25 11:12:29;;;;;;;32.33;19.38;;;;;;;;;;4980035;28;20030;-66
2021/11/25 11:20:52;;;;;;;30.90;18.98;;;;;;;;;;4978981;28;20034;-61
2021/11/25 11:23:37;;;;;;;29.88;18.75;;;;;;;;;;4986379;28;20022;-61
2021/11/25 11:26:23;;;;;;;32.63;19.17;;;;;;;;;;4984278;28;20022;-62
2021/11/25 11:29:09;;;;;;;30.38;17.65;;;;;;;;;;4985383;28;20506;-63
2021/11/25 11:31:56;;;;;;;28.27;18.13;;;;;;;;;;4971881;28;20084;-74
2021/11/25 11:34:42;;;;;;;28.35;17.42;;;;;;;;;;4982740;28;20042;-69
2021/11/25 11:37:28;;;;;;;29.95;17.80;;;;;;;;;;4970974;28;20251;-67
2021/11/25 11:40:13;;;;;;;28.02;18.08;;;;;;;;;;4985616;28;20073;-67
2021/11/25 11:43:00;;;;;;;33.85;21.38;;;;;;;;;;4983965;28;20051;-67
2021/11/25 11:45:45;;;;;;;28.42;19.52;;;;;;;;;;4979143;28;20386;-66
2021/11/25 11:48:31;;;;;;;30.55;19.10;;;;;;;;;;4982357;28;20027;-65
2021/11/25 11:51:18;;;;;;;29.92;18.92;;;;;;;;;;4984434;28;20119;-65
2021/11/25 11:54:14;;;;;;;28.95;19.45;;;;;;;;;;4983915;28;20022;-67
2021/11/25 11:57:00;;;;;;;32.17;19.67;;;;;;;;;;4984735;28;20065;-75
2021/11/25 11:59:46;;;;;;;30.02;19.52;;;;;;;;;;4984949;28;20072;-73
2021/11/25 12:02:41;;;;;;;29.30;19.27;;;;;;;;;;4987910;28;20057;-65
2021/11/25 12:05:39;;;;;;;29.88;18.27;;;;;;;;;;4979305;28;20061;-63
2021/11/25 12:08:24;;;;;;;28.65;17.75;;;;;;;;;;4984682;28;20030;-62
2021/11/25 12:11:10;;;;;;;32.20;18.65;;;;;;;;;;4983445;28;20548;-64
2021/11/25 12:14:00;;;;;;;32.25;20.00;;;;;;;;;;4971442;28;20045;-70
2021/11/25 12:16:47;;;;;;;35.17;20.23;;;;;;;;;;5006562;28;20153;-70
2021/11/25 12:19:34;;;;;;;32.08;20.65;;;;;;;;;;4979553;28;20029;-68
2021/11/25 12:22:20;;;;;;;31.02;19.92;;;;;;;;;;4985597;28;20041;-68
2021/11/25 12:25:07;;;;;;;31.35;19.20;;;;;;;;;;4972834;28;20035;-66
2021/11/25 12:28:08;;;;;;;30.75;19.77;;;;;;;;;;4969684;28;20030;-67
2021/11/25 12:31:06;;;;;;;29.90;19.00;;;;;;;;;;4984008;28;20166;-62
2021/11/25 12:33:52;;;;;;;31.58;19.63;;;;;;;;;;4983511;28;20140;-77
2021/11/25 12:36:40;;;;;;;31.42;19.85;;;;;;;;;;4982744;28;20030;-76
2021/11/25 12:39:36;;;;;;;30.07;20.73;;;;;;;;;;4992904;28;20064;-75
2021/11/25 12:42:22;;;;;;;32.40;19.15;;;;;;;;;;4984993;28;20103;-75
2021/11/25 12:45:17;;;;;;;34.97;21.30;;;;;;;;;;4976801;28;20076;-73
2021/11/25 12:48:05;;;;;;;28.13;17.90;;;;;;;;;;4986065;28;20027;-66
2021/11/25 12:50:56;;;;;;;29.25;19.48;;;;;;;;;;4983257;28;20437;-63
2021/11/25 12:53:44;;;;;;;31.80;19.58;;;;;;;;;;4976693;28;20034;-63
2021/11/25 12:56:31;;;;;;;27.67;18.83;;;;;;;;;;4982628;28;20038;-63
2021/11/25 12:59:17;;;;;;;30.98;19.75;;;;;;;;;;4983068;28;20058;-64
2021/11/25 13:02:02;;;;;;;31.15;18.88;;;;;;;;;;4980754;28;20061;-62
2021/11/25 13:04:47;;;;;;;30.13;20.77;;;;;;;;;;4982631;28;20081;-61
2021/11/25 13:07:43;;;;;;;29.50;19.45;;;;;;;;;;4981318;28;20393;-63
2021/11/25 13:10:31;;;;;;;30.55;19.65;;;;;;;;;;4976349;28;20064;-64
2021/11/25 13:13:18;;;;;;;31.55;20.33;;;;;;;;;;4971608;28;20073;-65
2021/11/25 13:16:04;;;;;;;32.53;19.50;;;;;;;;;;4983915;28;20109;-64
2021/11/25 13:19:05;;;;;;;30.83;20.70;;;;;;;;;;4982939;28;20111;-68
2021/11/25 13:21:51;;;;;;;32.70;21.23;;;;;;;;;;4977079;28;20045;-64
2021/11/25 13:24:36;;;;;;;37.17;21.52;;;;;;;;;;4978132;28;20034;-62
2021/11/25 13:27:24;;;;;;;33.00;21.15;;;;;;;;;;4976929;28;20145;-61
2021/11/25 13:30:09;;;;;;;37.83;20.77;;;;;;;;;;4985009;28;20026;-60
2021/11/25 13:32:54;;;;;;;31.75;20.20;;;;;;;;;;4980483;28;20130;-62
2021/11/25 13:35:40;;;;;;;35.00;21.98;;;;;;;;;;4985580;28;20136;-61
2021/11/25 13:38:25;;;;;;;33.47;21.23;;;;;;;;;;4969592;28;20050;-60
2021/11/25 13:41:13;;;;;;;32.70;21.73;;;;;;;;;;4983849;28;20041;-61
2021/11/25 13:43:59;;;;;;;38.55;21.95;;;;;;;;;;4982943;28;20026;-63
2021/11/25 13:46:46;;;;;;;33.80;20.48;;;;;;;;;;4982891;28;20030;-64
2021/11/25 13:49:45;;;;;;;35.33;21.42;;;;;;;;;;4985215;28;20130;-64
2021/11/25 13:52:32;;;;;;;34.15;21.88;;;;;;;;;;4965485;28;20030;-65
2021/11/25 13:55:18;;;;;;;32.88;21.58;;;;;;;;;;4979869;28;20034;-68
2021/11/25 13:58:04;;;;;;;31.75;19.98;;;;;;;;;;4984382;28;20042;-65
2021/11/25 14:00:51;;;;;;;32.28;21.63;;;;;;;;;;4984273;28;20393;-68
2021/11/25 14:03:36;;;;;;;35.72;20.13;;;;;;;;;;4973244;28;20385;-72
2021/11/25 14:06:23;;;;;;;35.40;21.90;;;;;;;;;;4967650;28;20022;-68
2021/11/25 14:09:10;;;;;;;33.10;19.60;;;;;;;;;;4979909;28;20038;-69
2021/11/25 14:11:57;;;;;;;33.67;20.67;;;;;;;;;;4999202;28;20393;-69
2021/11/25 14:14:44;;;;;;;43.92;28.65;;;;;;;;;;4984527;28;20026;-70
2021/11/25 14:17:29;;;;;;;32.15;20.30;;;;;;;;;;4988055;28;20045;-69
2021/11/25 14:20:25;;;;;;;32.35;21.55;;;;;;;;;;4969935;28;20038;-64
2021/11/25 14:23:14;;;;;;;32.55;20.30;;;;;;;;;;4980459;28;20500;-73
2021/11/25 14:26:20;;;;;;;29.70;19.38;;;;;;;;;;4998818;28;20042;-74
2021/11/25 14:32:23;;;;;;;35.08;20.85;;;;;;;;;;4987199;28;20027;-75
2021/11/25 14:35:29;;;;;;;33.50;20.08;;;;;;;;;;4983960;28;20022;-73
2021/11/25 14:38:20;;;;;;;37.58;20.00;;;;;;;;;;4999167;28;20050;-64
2021/11/25 14:41:05;;;;;;;33.38;20.67;;;;;;;;;;4983351;28;20454;-64
2021/11/25 14:44:07;;;;;;;34.95;19.92;;;;;;;;;;4986423;28;20111;-67
2021/11/25 14:47:05;;;;;;;31.63;20.42;;;;;;;;;;4983659;28;20030;-64
2021/11/25 14:49:50;;;;;;;31.75;20.42;;;;;;;;;;4986052;28;20101;-62
2021/11/25 14:52:38;;;;;;;34.00;20.10;;;;;;;;;;5028508;28;20053;-63
2021/11/25 14:55:23;;;;;;;31.30;19.65;;;;;;;;;;4978098;28;20593;-65
2021/11/25 14:58:09;;;;;;;31.38;19.77;;;;;;;;;;4987009;28;20041;-65
2021/11/25 15:00:58;;;;;;;31.65;20.15;;;;;;;;;;4981739;28;20031;-63
2021/11/25 15:03:44;;;;;;;;;;;;;;;;;;4988987;28;20046;-64
2021/11/25 15:06:33;;;;;;;35.40;21.08;;;;;;;;;;4986345;28;20356;-61
2021/11/25 15:09:19;;;;;;;33.67;20.63;;;;;;;;;;4972800;28;20034;-64
2021/11/25 15:12:05;;;;;;;30.42;19.13;;;;;;;;;;4985540;28;20057;-63
2021/11/25 15:15:00;;;;;;;34.22;20.08;;;;;;;;;;4977933;28;20042;-72
2021/11/25 15:17:45;;;;;;;32.90;19.83;;;;;;;;;;4986982;28;20053;-73
2021/11/25 15:20:30;;;;;;;31.15;19.75;;;;;;;;;;4985253;28;20109;-72
2021/11/25 15:23:17;;;;;;;39.55;25.40;;;;;;;;;;4981348;28;20418;-72
2021/11/25 15:26:07;;;;;;;31.55;21.58;;;;;;;;;;4983570;28;20026;-72
2021/11/25 15:28:52;;;;;;;35.53;21.20;;;;;;;;;;4985401;28;20081;-73
2021/11/25 15:31:38;;;;;;;31.80;20.55;;;;;;;;;;4983670;28;20022;-76
2021/11/25 15:34:23;;;;;;;30.65;20.13;;;;;;;;;;4981681;28;20876;-70
2021/11/25 15:37:09;;;;;;;38.05;21.67;;;;;;;;;;4984169;28;20053;-66
2021/11/25 15:39:54;;;;;;;37.72;23.38;;;;;;;;;;4985499;28;20034;-67
2021/11/25 15:42:43;;;;;;;32.35;21.65;;;;;;;;;;4985490;28;20043;-70
2021/11/25 15:45:31;;;;;;;33.65;20.92;;;;;;;;;;4986104;28;20034;-68
2021/11/25 15:48:17;;;;;;;33.30;21.58;;;;;;;;;;4985802;28;20034;-66
2021/11/25 15:51:03;;;;;;;35.17;22.40;;;;;;;;;;4986821;28;20390;-64
2021/11/25 15:53:49;;;;;;;36.40;22.35;;;;;;;;;;4985521;28;20493;-63
2021/11/25 15:56:34;;;;;;;35.63;20.63;;;;;;;;;;4985195;28;20042;-66
2021/11/25 15:59:20;;;;;;;31.55;21.40;;;;;;;;;;4986014;28;20163;-65
2021/11/25 16:02:05;;;;;;;49.65;31.73;;;;;;;;;;4973794;28;20481;-68
2021/11/25 16:04:51;;;;;;;37.63;22.80;;;;;;;;;;5001836;28;20073;-68
2021/11/25 16:07:36;;;;;;;36.35;21.55;;;;;;;;;;4975807;28;20105;-68
2021/11/25 16:10:21;;;;;;;35.97;21.90;;;;;;;;;;4974777;28;20026;-64
2021/11/25 16:13:09;;;;;;;35.25;21.23;;;;;;;;;;4983850;28;20493;-63
2021/11/25 16:15:54;;;;;;;30.13;20.00;;;;;;;;;;4985911;28;20042;-64
2021/11/25 16:18:39;;;;;;;34.15;21.85;;;;;;;;;;4979597;28;20084;-65
2021/11/25 16:21:25;;;;;;;28.58;20.63;;;;;;;;;;4980276;28;20061;-67
2021/11/25 16:24:10;;;;;;;31.65;20.90;;;;;;;;;;4976794;28;20030;-67
2021/11/25 16:26:56;;;;;;;31.73;20.63;;;;;;;;;;4978327;28;20035;-67
2021/11/25 16:29:41;;;;;;;34.45;21.90;;;;;;;;;;4971780;28;20038;-67